createdAt,value
2019-03-29T05:33:24.727Z,8.8
2019-03-29T05:34:36.896Z,8.2
2019-03-29T05:35:49.177Z,7.7
2019-03-29T05:37:01.279Z,7.3
2019-03-29T05:38:13.505Z,6.9
2019-03-29T05:39:25.721Z,6.7
2019-03-29T05:41:50.054Z,6.5
2019-03-29T05:43:02.262Z,6.5
2019-03-29T05:44:14.436Z,6.4
2019-03-29T05:45:26.629Z,6.5
2019-03-29T05:46:38.824Z,6.5
2019-03-29T05:47:51.161Z,6.5
2019-03-29T05:49:03.300Z,6.6
2019-03-29T05:50:15.482Z,6.6
2019-03-29T05:51:27.638Z,6.6
2019-03-29T05:53:52.061Z,6.6
2019-03-29T05:55:04.190Z,6.6
2019-03-29T05:56:16.475Z,6.6
2019-03-29T05:57:28.609Z,6.6
2019-03-29T05:58:40.775Z,6.6
2019-03-29T05:59:52.971Z,6.7
2019-03-29T06:01:05.237Z,6.7
2019-03-29T06:02:17.359Z,6.7
2019-03-29T06:03:29.575Z,6.7
2019-03-29T06:05:53.965Z,6.8
2019-03-29T06:07:07.207Z,6.8
2019-03-29T06:08:18.433Z,6.8
2019-03-29T06:09:30.654Z,6.8
2019-03-29T06:10:42.735Z,6.8
2019-03-29T06:11:54.969Z,6.8
2019-03-29T06:13:07.235Z,6.8
2019-03-29T06:14:19.395Z,6.9
2019-03-29T06:15:31.533Z,6.9
2019-03-29T06:17:55.917Z,7
2019-03-29T06:19:08.179Z,7
2019-03-29T06:20:20.346Z,7
2019-03-29T06:21:32.577Z,7.1
2019-03-29T06:22:44.696Z,7
2019-03-29T06:23:56.874Z,7
2019-03-29T06:25:09.081Z,7
2019-03-29T06:26:21.514Z,7.1
2019-03-29T06:27:33.648Z,7
2019-03-29T06:29:57.870Z,7.1
2019-03-29T06:31:10.072Z,7.2
2019-03-29T06:32:22.246Z,7.3
2019-03-29T06:33:34.442Z,7.3
2019-03-29T06:34:46.660Z,7.4
2019-03-29T06:35:58.837Z,7.5
2019-03-29T06:37:11.163Z,7.5
2019-03-29T06:38:23.213Z,7.5
2019-03-29T06:39:35.458Z,7.6
2019-03-29T06:41:59.831Z,7.6
2019-03-29T06:43:12.080Z,7.7
2019-03-29T06:44:24.210Z,7.7
2019-03-29T06:45:36.528Z,7.7
2019-03-29T06:48:00.815Z,7.8
2019-03-29T06:49:13.069Z,7.9
2019-03-29T06:50:25.259Z,7.9
2019-03-29T06:51:37.390Z,8
2019-03-29T06:54:01.781Z,8
2019-03-29T06:55:13.957Z,8
2019-03-29T06:57:38.401Z,8.1
2019-03-29T06:58:50.640Z,8.2
2019-03-29T07:00:02.821Z,8.2
2019-03-29T07:01:14.948Z,8.2
2019-03-29T07:02:27.192Z,8.3
2019-03-29T07:03:39.351Z,8.4
2019-03-29T07:06:03.725Z,8.4
2019-03-29T07:07:16.012Z,8.5
2019-03-29T07:08:28.105Z,8.6
2019-03-29T07:09:40.316Z,8.8
2019-03-29T07:10:52.617Z,9.1
2019-03-29T07:12:04.923Z,9.6
2019-03-29T07:13:16.917Z,10.1
2019-03-29T07:14:29.103Z,10.6
2019-03-29T07:15:41.463Z,10.8
2019-03-29T07:18:05.839Z,11.2
2019-03-29T07:19:17.965Z,11.4
2019-03-29T07:20:30.149Z,11.5
2019-03-29T07:21:42.293Z,11.6
2019-03-29T07:22:54.462Z,11.7
2019-03-29T07:24:06.664Z,11.8
2019-03-29T07:25:18.851Z,11.8
2019-03-29T07:26:31.057Z,11.9
2019-03-29T07:27:43.236Z,12
2019-03-29T07:30:07.620Z,12
2019-03-29T07:31:19.945Z,11.9
2019-03-29T07:32:32.026Z,11.8
2019-03-29T07:33:44.285Z,11.9
2019-03-29T07:34:56.403Z,12
2019-03-29T07:36:08.783Z,11.8
2019-03-29T07:37:20.857Z,11.6
2019-03-29T07:38:33.095Z,11.4
2019-03-29T07:39:45.219Z,11.5
2019-03-29T07:42:09.574Z,11.7
2019-03-29T07:43:21.789Z,11.8
2019-03-29T07:44:34.060Z,11.8
2019-03-29T07:45:46.249Z,11.8
2019-03-29T07:46:58.356Z,12
2019-03-29T07:48:10.883Z,12.4
2019-03-29T07:49:22.789Z,12.4
2019-03-29T07:50:34.973Z,12.5
2019-03-29T07:51:47.157Z,12.8
2019-03-29T07:55:23.729Z,12.8
2019-03-29T07:56:35.947Z,12.8
2019-03-29T07:57:48.117Z,13
2019-03-29T07:59:00.411Z,13
2019-03-29T08:00:12.662Z,13.3
2019-03-29T08:01:24.707Z,13.8
2019-03-29T08:02:36.989Z,14.3
2019-03-29T08:03:49.120Z,14.4
2019-03-29T08:06:13.492Z,14.4
2019-03-29T08:07:25.688Z,14.4
2019-03-29T08:08:37.876Z,14.2
2019-03-29T08:09:50.092Z,14.2
2019-03-29T08:11:02.452Z,14.4
2019-03-29T08:12:14.592Z,14.6
2019-03-29T08:13:26.792Z,14.6
2019-03-29T08:14:38.895Z,14.6
2019-03-29T08:15:51.045Z,14.5
2019-03-29T08:18:15.537Z,14.4
2019-03-29T08:19:27.671Z,14.4
2019-03-29T08:20:39.828Z,14.4
2019-03-29T08:21:52.044Z,14.4
2019-03-29T08:23:04.267Z,14.3
2019-03-29T08:24:16.663Z,14.3
2019-03-29T08:25:28.692Z,14.3
2019-03-29T08:26:40.898Z,14.4
2019-03-29T08:27:53.038Z,14.6
2019-03-29T08:30:17.475Z,15
2019-03-29T08:31:29.662Z,14.9
2019-03-29T08:32:41.873Z,14.7
2019-03-29T08:33:54.104Z,14.7
2019-03-29T08:35:06.177Z,14.8
2019-03-29T08:36:18.564Z,14.9
2019-03-29T08:37:30.609Z,14.6
2019-03-29T08:38:42.761Z,14.2
2019-03-29T08:39:55.017Z,14.1
2019-03-29T08:42:19.333Z,14.4
2019-03-29T08:43:31.547Z,14.3
2019-03-29T08:44:43.724Z,14.2
2019-03-29T08:45:56.126Z,14.1
2019-03-29T08:47:08.122Z,14
2019-03-29T08:48:20.470Z,14.1
2019-03-29T08:49:32.519Z,14.1
2019-03-29T08:50:44.705Z,14
2019-03-29T08:51:56.978Z,14
2019-03-29T08:54:21.309Z,13.8
2019-03-29T08:55:33.489Z,13.7
2019-03-29T08:56:45.727Z,13.6
2019-03-29T08:57:58.036Z,13.6
2019-03-29T09:00:22.282Z,13.6
2019-03-29T09:01:35.762Z,13.6
2019-03-29T09:02:48.368Z,13.7
2019-03-29T09:03:58.936Z,13.8
2019-03-29T09:06:25.531Z,13.8
2019-03-29T09:07:38.408Z,13.8
2019-03-29T09:08:47.854Z,13.9
2019-03-29T09:09:59.878Z,13.8
2019-03-29T09:11:12.034Z,14.1
2019-03-29T09:12:24.297Z,14.6
2019-03-29T09:13:36.509Z,14.8
2019-03-29T09:14:49.159Z,15
2019-03-29T09:16:00.886Z,15.3
2019-03-29T09:18:25.221Z,15.7
2019-03-29T09:19:37.521Z,15.9
2019-03-29T09:20:49.598Z,16.3
2019-03-29T09:22:03.272Z,16.6
2019-03-29T09:23:13.987Z,16.8
2019-03-29T09:24:26.212Z,17
2019-03-29T09:25:38.382Z,17.2
2019-03-29T09:26:50.604Z,17.3
2019-03-29T09:28:02.789Z,17.1
2019-03-29T09:30:27.284Z,16.6
2019-03-29T09:31:39.351Z,16.8
2019-03-29T09:32:51.576Z,17
2019-03-29T09:34:03.764Z,17.2
2019-03-29T09:35:15.978Z,17.3
2019-03-29T09:36:28.126Z,17.4
2019-03-29T09:37:40.499Z,17.5
2019-03-29T09:38:52.515Z,17.4
2019-03-29T09:40:04.770Z,17.4
2019-03-29T09:42:29.112Z,17.7
2019-03-29T09:43:41.283Z,18
2019-03-29T09:44:53.560Z,18.1
2019-03-29T09:46:05.703Z,18
2019-03-29T09:47:17.898Z,17.4
2019-03-29T09:48:30.363Z,17
2019-03-29T09:49:42.282Z,16.6
2019-03-29T09:50:54.577Z,16.2
2019-03-29T09:52:06.809Z,16.1
2019-03-29T09:54:31.215Z,16.3
2019-03-29T09:55:43.317Z,16.5
2019-03-29T09:56:55.455Z,17
2019-03-29T09:58:07.721Z,17.4
2019-03-29T09:59:19.957Z,17.8
2019-03-29T10:00:33.152Z,17.9
2019-03-29T10:01:48.507Z,17.6
2019-03-29T10:03:00.747Z,17.6
2019-03-29T10:04:08.762Z,17.6
2019-03-29T10:06:36.807Z,17.8
2019-03-29T10:07:45.202Z,18
2019-03-29T10:08:57.460Z,18.2
2019-03-29T10:10:09.600Z,18.4
2019-03-29T10:11:21.805Z,18.5
2019-03-29T10:12:33.995Z,18.1
2019-03-29T10:13:46.214Z,18
2019-03-29T10:14:58.444Z,17.9
2019-03-29T10:16:10.566Z,17.2
2019-03-29T10:18:35.193Z,17.6
2019-03-29T10:19:47.236Z,17.8
2019-03-29T10:20:59.478Z,17.8
2019-03-29T10:22:11.674Z,17.7
2019-03-29T10:23:24.031Z,18.2
2019-03-29T10:24:35.974Z,18.9
2019-03-29T10:25:48.133Z,19.6
2019-03-29T10:27:00.422Z,20.1
2019-03-29T10:28:12.616Z,19.8
2019-03-29T10:31:49.182Z,19
2019-03-29T10:34:13.513Z,19.8
2019-03-29T10:35:25.871Z,19.3
2019-03-29T10:36:37.895Z,18.6
2019-03-29T10:37:50.144Z,18.2
2019-03-29T10:39:02.283Z,17.8
2019-03-29T10:40:14.555Z,17.8
2019-03-29T10:42:38.911Z,18.3
2019-03-29T10:43:51.139Z,17.8
2019-03-29T10:45:03.418Z,18
2019-03-29T10:46:17.344Z,18.1
2019-03-29T10:47:29.817Z,18.5
2019-03-29T10:48:41.770Z,19.2
2019-03-29T10:51:06.642Z,20.3
2019-03-29T10:52:16.456Z,20.8
2019-03-29T10:54:40.856Z,20.7
2019-03-29T10:55:53.072Z,21
2019-03-29T10:57:05.354Z,21.5
2019-03-29T10:58:17.422Z,21.5
2019-03-29T10:59:29.611Z,21.8
2019-03-29T11:00:41.848Z,22.2
2019-03-29T11:01:54.026Z,22.4
2019-03-29T11:03:06.207Z,23
2019-03-29T11:04:18.400Z,23.6
2019-03-29T11:06:42.843Z,22.6
2019-03-29T11:07:54.978Z,21.4
2019-03-29T11:10:19.464Z,21.5
2019-03-29T11:11:31.637Z,21.2
2019-03-29T11:12:43.947Z,21.5
2019-03-29T11:13:56.003Z,22.2
2019-03-29T11:15:08.205Z,22.8
2019-03-29T11:16:20.424Z,23.2
2019-03-29T11:18:44.794Z,23.3
2019-03-29T11:19:56.959Z,23.7
2019-03-29T11:21:09.132Z,24.1
2019-03-29T11:22:21.756Z,24.4
2019-03-29T11:23:33.559Z,24.8
2019-03-29T11:24:45.725Z,24.4
2019-03-29T11:25:57.913Z,24.6
2019-03-29T11:27:10.115Z,24.5
2019-03-29T11:28:22.384Z,24
2019-03-29T11:30:46.730Z,24.2
2019-03-29T11:31:58.913Z,24.2
2019-03-29T11:33:11.320Z,23.7
2019-03-29T11:34:23.311Z,23.7
2019-03-29T11:35:35.495Z,23.9
2019-03-29T11:36:47.708Z,24.1
2019-03-29T11:37:59.978Z,23.8
2019-03-29T11:39:12.092Z,23.5
2019-03-29T11:40:24.383Z,23.5
2019-03-29T11:42:48.712Z,24.3
2019-03-29T11:44:00.916Z,24.6
2019-03-29T11:45:13.049Z,25
2019-03-29T11:46:25.248Z,25.3
2019-03-29T11:47:37.538Z,25.2
2019-03-29T11:48:49.730Z,24.6
2019-03-29T11:50:01.987Z,24.4
2019-03-29T11:51:14.031Z,24.8
2019-03-29T11:52:26.252Z,25.1
2019-03-29T11:54:50.637Z,26
2019-03-29T11:56:02.804Z,26.2
2019-03-29T11:57:15.016Z,26.1
2019-03-29T11:58:27.219Z,25.5
2019-03-29T11:59:39.413Z,24.8
2019-03-29T12:02:03.951Z,23
2019-03-29T12:03:15.994Z,21.7
2019-03-29T12:04:28.260Z,20.9
2019-03-29T12:06:52.712Z,20.5
2019-03-29T12:08:04.857Z,20.8
2019-03-29T12:09:17.034Z,21.4
2019-03-29T12:10:29.198Z,21.6
2019-03-29T12:11:41.346Z,22.2
2019-03-29T12:12:53.554Z,23.1
2019-03-29T12:14:06.027Z,23.4
2019-03-29T12:15:17.934Z,23.9
2019-03-29T12:16:30.140Z,24.5
2019-03-29T12:18:54.542Z,24.3
2019-03-29T12:20:06.781Z,24.3
2019-03-29T12:22:31.145Z,24.9
2019-03-29T12:23:43.398Z,24.7
2019-03-29T12:24:55.591Z,24.5
2019-03-29T12:26:07.780Z,24.9
2019-03-29T12:27:19.972Z,25.2
2019-03-29T12:28:32.165Z,24.5
2019-03-29T12:30:56.641Z,23
2019-03-29T12:32:08.757Z,23.2
2019-03-29T12:33:20.966Z,24.1
2019-03-29T12:34:33.096Z,24.5
2019-03-29T12:35:45.292Z,24.8
2019-03-29T12:36:57.600Z,25.6
2019-03-29T12:38:09.679Z,25.4
2019-03-29T12:39:21.868Z,25.4
2019-03-29T12:40:34.046Z,25
2019-03-29T12:42:58.665Z,26.5
2019-03-29T12:44:10.738Z,27.1
2019-03-29T12:45:22.892Z,27.3
2019-03-29T12:46:35.137Z,27.3
2019-03-29T12:47:47.223Z,27.2
2019-03-29T12:48:59.504Z,26.3
2019-03-29T12:50:11.618Z,26.1
2019-03-29T12:51:23.807Z,26.4
2019-03-29T12:52:36.124Z,26
2019-03-29T12:55:00.421Z,25.7
2019-03-29T12:56:12.589Z,25.5
2019-03-29T12:57:24.825Z,25.9
2019-03-29T12:58:37.044Z,26.2
2019-03-29T12:59:49.301Z,25.8
2019-03-29T13:01:01.488Z,25.9
2019-03-29T13:02:16.008Z,25.3
2019-03-29T13:03:25.941Z,24.3
2019-03-29T13:04:38.029Z,24.6
2019-03-29T13:07:05.959Z,24.9
2019-03-29T13:08:14.550Z,25
2019-03-29T13:09:26.790Z,25.1
2019-03-29T13:10:38.967Z,25
2019-03-29T13:11:51.143Z,25
2019-03-29T13:13:03.351Z,25
2019-03-29T13:15:32.445Z,24.2
2019-03-29T13:16:39.938Z,23.3
2019-03-29T13:19:04.328Z,22.7
2019-03-29T13:20:16.509Z,22.5
2019-03-29T13:21:28.711Z,22.6
2019-03-29T13:22:41.158Z,22.7
2019-03-29T13:23:53.147Z,22.7
2019-03-29T13:25:05.513Z,22.5
2019-03-29T13:26:17.499Z,22.4
2019-03-29T13:27:29.773Z,21.8
2019-03-29T13:28:41.983Z,21.6
2019-03-29T13:31:06.306Z,21.1
2019-03-29T13:32:18.672Z,21.2
2019-03-29T13:33:30.667Z,21.3
2019-03-29T13:34:42.886Z,21.4
2019-03-29T13:35:55.178Z,21.5
2019-03-29T13:37:07.278Z,21.5
2019-03-29T13:38:19.468Z,21.7
2019-03-29T13:39:31.652Z,21.8
2019-03-29T13:40:43.964Z,21.6
2019-03-29T13:43:08.318Z,21.6
2019-03-29T13:44:20.537Z,21.5
2019-03-29T13:45:32.640Z,21.6
2019-03-29T13:47:57.016Z,21.6
2019-03-29T13:49:09.274Z,21.6
2019-03-29T13:50:21.512Z,21.5
2019-03-29T13:51:33.597Z,21.4
2019-03-29T13:52:45.804Z,21.2
2019-03-29T13:55:10.308Z,21
2019-03-29T13:56:22.431Z,20.7
2019-03-29T13:57:34.598Z,20.6
2019-03-29T13:58:46.785Z,20.4
2019-03-29T13:59:58.982Z,20.2
2019-03-29T14:01:11.175Z,20.1
2019-03-29T14:02:23.617Z,20.1
2019-03-29T14:03:35.610Z,20.2
2019-03-29T14:04:47.771Z,20.3
2019-03-29T14:07:12.221Z,20.5
2019-03-29T14:08:24.381Z,20.3
2019-03-29T14:10:48.728Z,20
2019-03-29T14:12:00.984Z,20.1
2019-03-29T14:13:13.122Z,20.1
2019-03-29T14:14:25.540Z,20.2
2019-03-29T14:15:37.532Z,20.2
2019-03-29T14:16:49.716Z,20.3
2019-03-29T14:19:14.098Z,20.2
2019-03-29T14:20:26.307Z,20.3
2019-03-29T14:21:38.540Z,20.3
2019-03-29T14:22:50.702Z,20.2
2019-03-29T14:24:02.877Z,20.1
2019-03-29T14:25:15.085Z,20.1
2019-03-29T14:26:27.275Z,20.2
2019-03-29T14:27:39.536Z,20.1
2019-03-29T14:28:51.758Z,20.1
2019-03-29T14:31:16.143Z,19.5
2019-03-29T14:32:28.274Z,19.5
2019-03-29T14:33:40.589Z,19.4
2019-03-29T14:34:52.755Z,19.1
2019-03-29T14:36:04.896Z,18.9
2019-03-29T14:37:18.917Z,18.9
2019-03-29T14:38:29.245Z,18.9
2019-03-29T14:39:41.534Z,19
2019-03-29T14:40:53.737Z,18.9
2019-03-29T14:42:05.975Z,18.8
2019-03-29T14:43:18.214Z,18.8
2019-03-29T14:44:30.236Z,18.9
2019-03-29T14:45:42.397Z,19
2019-03-29T14:46:54.626Z,19.2
2019-03-29T14:48:06.845Z,19.2
2019-03-29T14:49:19.096Z,19.1
2019-03-29T14:50:31.182Z,19.1
2019-03-29T14:51:43.391Z,19.2
2019-03-29T14:52:55.608Z,19.3
2019-03-29T14:55:19.976Z,18.9
2019-03-29T14:56:32.239Z,18.9
2019-03-29T14:57:44.420Z,19.1
2019-03-29T14:58:56.583Z,19.2
2019-03-29T15:00:08.850Z,19.3
2019-03-29T15:01:21.007Z,19.4
2019-03-29T15:02:33.216Z,19.3
2019-03-29T15:03:45.452Z,19.4
2019-03-29T15:04:57.672Z,19.5
2019-03-29T15:07:23.929Z,19.6
2019-03-29T15:08:34.168Z,19.7
2019-03-29T15:09:46.306Z,19.6
2019-03-29T15:11:03.353Z,19.4
2019-03-29T15:12:11.001Z,19.3
2019-03-29T15:13:22.981Z,19.4
2019-03-29T15:14:35.079Z,19.4
2019-03-29T15:15:47.313Z,19.4
2019-03-29T15:16:59.539Z,19.2
2019-03-29T15:19:23.934Z,19
2019-03-29T15:20:36.319Z,19
2019-03-29T15:21:48.246Z,18.9
2019-03-29T15:23:00.695Z,18.9
2019-03-29T15:24:12.635Z,19
2019-03-29T15:25:24.883Z,19
2019-03-29T15:26:37.015Z,19
2019-03-29T15:27:49.303Z,19.1
2019-03-29T15:29:01.415Z,19.1
2019-03-29T15:30:13.608Z,19.1
2019-03-29T15:31:25.803Z,19.1
2019-03-29T15:32:37.974Z,19
2019-03-29T15:33:50.280Z,19
2019-03-29T15:35:02.372Z,19
2019-03-29T15:36:14.581Z,18.9
2019-03-29T15:37:26.756Z,18.5
2019-03-29T15:38:38.949Z,18.5
2019-03-29T15:39:51.135Z,18.4
2019-03-29T15:41:03.324Z,18.4
2019-03-29T15:43:27.725Z,18.5
2019-03-29T15:44:39.911Z,18.6
2019-03-29T15:45:52.199Z,18.7
2019-03-29T15:47:04.322Z,18.7
2019-03-29T15:48:16.506Z,18.7
2019-03-29T15:49:28.914Z,18.7
2019-03-29T15:50:40.905Z,18.6
2019-03-29T15:51:53.089Z,18.7
2019-03-29T15:53:05.366Z,18.7
2019-03-29T15:55:29.766Z,18.5
2019-03-29T15:56:41.871Z,18.6
2019-03-29T15:57:54.052Z,18.6
2019-03-29T15:59:06.378Z,18.7
2019-03-29T16:00:18.433Z,18.7
2019-03-29T16:01:30.697Z,18.8
2019-03-29T16:02:42.988Z,18.7
2019-03-29T16:03:55.012Z,18.7
2019-03-29T16:05:07.233Z,18.7
2019-03-29T16:07:31.608Z,18.4
2019-03-29T16:08:43.799Z,18.3
2019-03-29T16:09:55.984Z,18.3
2019-03-29T16:11:08.199Z,18.2
2019-03-29T16:12:20.418Z,18.1
2019-03-29T16:13:32.683Z,18.1
2019-03-29T16:14:44.790Z,18.1
2019-03-29T16:15:56.986Z,18.1
2019-03-29T16:19:33.603Z,18.2
2019-03-29T16:20:45.833Z,18.2
2019-03-29T16:21:58.064Z,18.2
2019-03-29T16:23:10.127Z,18.2
2019-03-29T16:24:22.382Z,18.1
2019-03-29T16:25:34.586Z,18
2019-03-29T16:26:46.703Z,18
2019-03-29T16:27:58.951Z,18
2019-03-29T16:29:11.305Z,18
2019-03-29T16:31:35.548Z,17.9
2019-03-29T16:32:47.854Z,17.9
2019-03-29T16:35:12.227Z,17.8
